sensor_id;sensor_type;location;lat;lon;timestamp;temperature;humidity
12481;DHT22;6305;48.398;11.762;2023-10-13T00:01:22;14.40;99.90
12481;DHT22;6305;48.398;11.762;2023-10-13T00:03:49;14.40;99.90
12481;DHT22;6305;48.398;11.762;2023-10-13T00:06:35;14.40;99.90
12481;DHT22;6305;48.398;11.762;2023-10-13T00:09:22;14.40;99.90
12481;DHT22;6305;48.398;11.762;2023-10-13T00:12:09;14.50;99.90
12481;DHT22;6305;48.398;11.762;2023-10-13T00:14:39;14.50;99.90
12481;DHT22;6305;48.398;11.762;2023-10-13T00:17:08;14.50;99.90
12481;DHT22;6305;48.398;11.762;2023-10-13T00:19:41;14.50;99.90
12481;DHT22;6305;48.398;11.762;2023-10-13T00:22:13;14.40;99.90
12481;DHT22;6305;48.398;11.762;2023-10-13T00:24:42;14.30;99.90
12481;DHT22;6305;48.398;11.762;2023-10-13T00:27:11;14.20;99.90
12481;DHT22;6305;48.398;11.762;2023-10-13T00:29:55;14.10;99.90
12481;DHT22;6305;48.398;11.762;2023-10-13T00:32:43;13.90;99.90
12481;DHT22;6305;48.398;11.762;2023-10-13T00:35:13;13.90;99.90
12481;DHT22;6305;48.398;11.762;2023-10-13T00:37:50;13.70;99.90
12481;DHT22;6305;48.398;11.762;2023-10-13T00:40:19;13.60;99.90
12481;DHT22;6305;48.398;11.762;2023-10-13T00:43:07;13.40;99.90
12481;DHT22;6305;48.398;11.762;2023-10-13T00:45:53;13.30;99.90
12481;DHT22;6305;48.398;11.762;2023-10-13T00:48:27;13.30;99.90
12481;DHT22;6305;48.398;11.762;2023-10-13T00:51:00;13.20;99.90
12481;DHT22;6305;48.398;11.762;2023-10-13T00:53:29;13.20;99.90
12481;DHT22;6305;48.398;11.762;2023-10-13T00:56:00;13.20;99.90
12481;DHT22;6305;48.398;11.762;2023-10-13T00:58:32;13.10;99.90
12481;DHT22;6305;48.398;11.762;2023-10-13T01:00:59;13.00;99.90
12481;DHT22;6305;48.398;11.762;2023-10-13T01:03:45;12.90;99.90
12481;DHT22;6305;48.398;11.762;2023-10-13T01:06:17;12.80;99.90
12481;DHT22;6305;48.398;11.762;2023-10-13T01:08:46;12.70;99.90
12481;DHT22;6305;48.398;11.762;2023-10-13T01:11:18;12.60;99.90
12481;DHT22;6305;48.398;11.762;2023-10-13T01:13:44;12.50;99.90
12481;DHT22;6305;48.398;11.762;2023-10-13T01:16:16;12.40;99.90
12481;DHT22;6305;48.398;11.762;2023-10-13T01:18:42;12.40;99.90
12481;DHT22;6305;48.398;11.762;2023-10-13T01:21:16;12.30;99.90
12481;DHT22;6305;48.398;11.762;2023-10-13T01:23:44;12.30;99.90
12481;DHT22;6305;48.398;11.762;2023-10-13T01:26:12;12.20;99.90
12481;DHT22;6305;48.398;11.762;2023-10-13T01:28:43;12.20;99.90
12481;DHT22;6305;48.398;11.762;2023-10-13T01:31:16;12.10;99.90
12481;DHT22;6305;48.398;11.762;2023-10-13T01:33:53;12.10;99.90
12481;DHT22;6305;48.398;11.762;2023-10-13T01:36:23;12.00;99.90
12481;DHT22;6305;48.398;11.762;2023-10-13T01:38:50;12.00;99.90
12481;DHT22;6305;48.398;11.762;2023-10-13T01:41:19;12.00;99.90
12481;DHT22;6305;48.398;11.762;2023-10-13T01:43:46;11.90;99.90
12481;DHT22;6305;48.398;11.762;2023-10-13T01:46:12;11.90;99.90
12481;DHT22;6305;48.398;11.762;2023-10-13T01:48:41;11.90;99.90
12481;DHT22;6305;48.398;11.762;2023-10-13T01:51:09;11.90;99.90
12481;DHT22;6305;48.398;11.762;2023-10-13T01:53:37;11.80;99.90
12481;DHT22;6305;48.398;11.762;2023-10-13T01:56:05;11.80;99.90
12481;DHT22;6305;48.398;11.762;2023-10-13T01:58:37;11.80;99.90
12481;DHT22;6305;48.398;11.762;2023-10-13T02:01:07;11.70;99.90
12481;DHT22;6305;48.398;11.762;2023-10-13T02:03:35;11.70;99.90
12481;DHT22;6305;48.398;11.762;2023-10-13T02:06:07;11.70;99.90
12481;DHT22;6305;48.398;11.762;2023-10-13T02:08:36;11.70;99.90
12481;DHT22;6305;48.398;11.762;2023-10-13T02:11:07;11.70;99.90
12481;DHT22;6305;48.398;11.762;2023-10-13T02:13:37;11.70;99.90
12481;DHT22;6305;48.398;11.762;2023-10-13T02:16:08;11.70;99.90
12481;DHT22;6305;48.398;11.762;2023-10-13T02:18:37;11.70;99.90
12481;DHT22;6305;48.398;11.762;2023-10-13T02:21:08;11.70;99.90
12481;DHT22;6305;48.398;11.762;2023-10-13T02:23:39;11.70;99.90
12481;DHT22;6305;48.398;11.762;2023-10-13T02:26:11;11.80;99.90
12481;DHT22;6305;48.398;11.762;2023-10-13T02:28:41;11.80;99.90
12481;DHT22;6305;48.398;11.762;2023-10-13T02:31:07;11.80;99.90
12481;DHT22;6305;48.398;11.762;2023-10-13T02:33:34;11.90;99.90
12481;DHT22;6305;48.398;11.762;2023-10-13T02:36:02;11.80;99.90
12481;DHT22;6305;48.398;11.762;2023-10-13T02:38:31;11.80;99.90
12481;DHT22;6305;48.398;11.762;2023-10-13T02:41:00;11.70;99.90
12481;DHT22;6305;48.398;11.762;2023-10-13T02:43:34;11.60;99.90
12481;DHT22;6305;48.398;11.762;2023-10-13T02:46:01;11.50;99.90
12481;DHT22;6305;48.398;11.762;2023-10-13T02:48:29;11.50;99.90
12481;DHT22;6305;48.398;11.762;2023-10-13T02:51:06;11.40;99.90
12481;DHT22;6305;48.398;11.762;2023-10-13T02:53:41;11.30;99.90
12481;DHT22;6305;48.398;11.762;2023-10-13T02:56:08;11.30;99.90
12481;DHT22;6305;48.398;11.762;2023-10-13T02:58:35;11.20;99.90
12481;DHT22;6305;48.398;11.762;2023-10-13T03:01:09;11.10;99.90
12481;DHT22;6305;48.398;11.762;2023-10-13T03:03:44;11.10;99.90
12481;DHT22;6305;48.398;11.762;2023-10-13T03:06:14;11.00;99.90
12481;DHT22;6305;48.398;11.762;2023-10-13T03:08:40;10.90;99.90
12481;DHT22;6305;48.398;11.762;2023-10-13T03:11:09;10.80;99.90
12481;DHT22;6305;48.398;11.762;2023-10-13T03:13:37;10.70;99.90
12481;DHT22;6305;48.398;11.762;2023-10-13T03:16:13;10.70;99.90
12481;DHT22;6305;48.398;11.762;2023-10-13T03:18:43;10.60;99.90
12481;DHT22;6305;48.398;11.762;2023-10-13T03:21:20;10.60;99.90
12481;DHT22;6305;48.398;11.762;2023-10-13T03:23:58;10.60;99.90
12481;DHT22;6305;48.398;11.762;2023-10-13T03:26:33;10.60;99.90
12481;DHT22;6305;48.398;11.762;2023-10-13T03:29:04;10.50;99.90
12481;DHT22;6305;48.398;11.762;2023-10-13T03:31:34;10.50;99.90
12481;DHT22;6305;48.398;11.762;2023-10-13T03:34:05;10.50;99.90
12481;DHT22;6305;48.398;11.762;2023-10-13T03:36:36;10.40;99.90
12481;DHT22;6305;48.398;11.762;2023-10-13T03:39:21;10.40;99.90
12481;DHT22;6305;48.398;11.762;2023-10-13T03:41:53;10.40;99.90
12481;DHT22;6305;48.398;11.762;2023-10-13T03:44:22;10.40;99.90
12481;DHT22;6305;48.398;11.762;2023-10-13T03:46:48;10.40;99.90
12481;DHT22;6305;48.398;11.762;2023-10-13T03:49:19;10.30;99.90
12481;DHT22;6305;48.398;11.762;2023-10-13T03:51:48;10.30;99.90
12481;DHT22;6305;48.398;11.762;2023-10-13T03:54:15;10.20;99.90
12481;DHT22;6305;48.398;11.762;2023-10-13T03:56:44;10.10;99.90
12481;DHT22;6305;48.398;11.762;2023-10-13T03:59:18;10.10;99.90
12481;DHT22;6305;48.398;11.762;2023-10-13T04:01:47;10.00;99.90
12481;DHT22;6305;48.398;11.762;2023-10-13T04:04:24;10.00;99.90
12481;DHT22;6305;48.398;11.762;2023-10-13T04:07:01;9.90;99.90
12481;DHT22;6305;48.398;11.762;2023-10-13T04:09:52;10.00;99.90
12481;DHT22;6305;48.398;11.762;2023-10-13T04:12:35;10.00;99.90
12481;DHT22;6305;48.398;11.762;2023-10-13T04:15:25;9.90;99.90
12481;DHT22;6305;48.398;11.762;2023-10-13T04:18:04;9.90;99.90
12481;DHT22;6305;48.398;11.762;2023-10-13T04:20:40;9.90;99.90
12481;DHT22;6305;48.398;11.762;2023-10-13T04:23:12;9.90;99.90
12481;DHT22;6305;48.398;11.762;2023-10-13T04:25:45;9.90;99.90
12481;DHT22;6305;48.398;11.762;2023-10-13T04:28:29;9.90;99.90
12481;DHT22;6305;48.398;11.762;2023-10-13T04:31:05;9.90;99.90
12481;DHT22;6305;48.398;11.762;2023-10-13T04:33:51;9.80;99.90
12481;DHT22;6305;48.398;11.762;2023-10-13T04:36:21;9.90;99.90
12481;DHT22;6305;48.398;11.762;2023-10-13T04:39:02;9.80;99.90
12481;DHT22;6305;48.398;11.762;2023-10-13T04:41:36;9.80;99.90
12481;DHT22;6305;48.398;11.762;2023-10-13T04:44:05;9.80;99.90
12481;DHT22;6305;48.398;11.762;2023-10-13T04:46:59;9.90;99.90
12481;DHT22;6305;48.398;11.762;2023-10-13T04:49:39;9.90;99.90
12481;DHT22;6305;48.398;11.762;2023-10-13T04:52:18;9.90;99.90
12481;DHT22;6305;48.398;11.762;2023-10-13T04:55:11;9.80;99.90
12481;DHT22;6305;48.398;11.762;2023-10-13T04:57:59;9.80;99.90
12481;DHT22;6305;48.398;11.762;2023-10-13T05:00:37;9.90;99.90
12481;DHT22;6305;48.398;11.762;2023-10-13T05:03:24;9.90;99.90
12481;DHT22;6305;48.398;11.762;2023-10-13T05:06:19;9.90;99.90
12481;DHT22;6305;48.398;11.762;2023-10-13T05:09:04;9.90;99.90
12481;DHT22;6305;48.398;11.762;2023-10-13T05:12:07;9.90;99.90
12481;DHT22;6305;48.398;11.762;2023-10-13T05:15:22;9.90;99.90
12481;DHT22;6305;48.398;11.762;2023-10-13T05:18:07;9.90;99.90
12481;DHT22;6305;48.398;11.762;2023-10-13T05:20:55;9.80;99.90
12481;DHT22;6305;48.398;11.762;2023-10-13T05:23:41;9.80;99.90
12481;DHT22;6305;48.398;11.762;2023-10-13T05:26:29;9.70;99.90
12481;DHT22;6305;48.398;11.762;2023-10-13T05:29:13;9.60;99.90
12481;DHT22;6305;48.398;11.762;2023-10-13T05:32:16;9.60;99.90
12481;DHT22;6305;48.398;11.762;2023-10-13T05:35:01;9.50;99.90
12481;DHT22;6305;48.398;11.762;2023-10-13T05:38:04;9.50;99.90
12481;DHT22;6305;48.398;11.762;2023-10-13T05:41:09;9.50;99.90
12481;DHT22;6305;48.398;11.762;2023-10-13T05:43:54;9.50;99.90
12481;DHT22;6305;48.398;11.762;2023-10-13T05:46:39;9.50;99.90
12481;DHT22;6305;48.398;11.762;2023-10-13T05:49:49;9.60;99.90
12481;DHT22;6305;48.398;11.762;2023-10-13T05:52:16;9.60;99.90
12481;DHT22;6305;48.398;11.762;2023-10-13T05:55:06;9.70;99.90
12481;DHT22;6305;48.398;11.762;2023-10-13T05:57:52;9.80;99.90
12481;DHT22;6305;48.398;11.762;2023-10-13T06:00:41;9.80;99.90
12481;DHT22;6305;48.398;11.762;2023-10-13T06:03:26;9.90;99.90
12481;DHT22;6305;48.398;11.762;2023-10-13T06:06:10;10.00;99.90
12481;DHT22;6305;48.398;11.762;2023-10-13T06:09:00;10.10;99.90
12481;DHT22;6305;48.398;11.762;2023-10-13T06:11:44;10.20;99.90
12481;DHT22;6305;48.398;11.762;2023-10-13T06:14:30;10.20;99.90
12481;DHT22;6305;48.398;11.762;2023-10-13T06:17:15;10.30;99.90
12481;DHT22;6305;48.398;11.762;2023-10-13T06:19:59;10.40;99.90
12481;DHT22;6305;48.398;11.762;2023-10-13T06:22:47;10.60;99.90
12481;DHT22;6305;48.398;11.762;2023-10-13T06:25:31;10.70;99.90
12481;DHT22;6305;48.398;11.762;2023-10-13T06:28:16;10.90;99.90
12481;DHT22;6305;48.398;11.762;2023-10-13T06:31:05;11.00;99.90
12481;DHT22;6305;48.398;11.762;2023-10-13T06:33:33;11.20;99.90
12481;DHT22;6305;48.398;11.762;2023-10-13T06:36:01;11.30;99.90
12481;DHT22;6305;48.398;11.762;2023-10-13T06:38:28;11.50;99.90
12481;DHT22;6305;48.398;11.762;2023-10-13T06:41:01;11.70;99.90
12481;DHT22;6305;48.398;11.762;2023-10-13T06:43:31;11.90;99.90
12481;DHT22;6305;48.398;11.762;2023-10-13T06:46:06;12.10;99.90
12481;DHT22;6305;48.398;11.762;2023-10-13T06:48:40;12.30;99.90
12481;DHT22;6305;48.398;11.762;2023-10-13T06:51:07;12.50;99.90
12481;DHT22;6305;48.398;11.762;2023-10-13T06:53:44;12.80;99.90
12481;DHT22;6305;48.398;11.762;2023-10-13T06:56:13;13.20;99.90
12481;DHT22;6305;48.398;11.762;2023-10-13T06:58:48;13.50;99.90
12481;DHT22;6305;48.398;11.762;2023-10-13T07:01:16;13.80;99.90
12481;DHT22;6305;48.398;11.762;2023-10-13T07:03:47;14.20;99.90
12481;DHT22;6305;48.398;11.762;2023-10-13T07:06:18;14.80;99.90
12481;DHT22;6305;48.398;11.762;2023-10-13T07:08:45;15.70;99.90
12481;DHT22;6305;48.398;11.762;2023-10-13T07:11:18;16.50;99.90
12481;DHT22;6305;48.398;11.762;2023-10-13T07:13:59;17.00;99.90
12481;DHT22;6305;48.398;11.762;2023-10-13T07:16:42;19.00;99.90
12481;DHT22;6305;48.398;11.762;2023-10-13T07:19:12;20.60;99.90
12481;DHT22;6305;48.398;11.762;2023-10-13T07:21:43;21.70;99.90
12481;DHT22;6305;48.398;11.762;2023-10-13T07:24:12;22.10;92.60
12481;DHT22;6305;48.398;11.762;2023-10-13T07:26:39;21.60;85.70
12481;DHT22;6305;48.398;11.762;2023-10-13T07:29:11;21.00;84.70
12481;DHT22;6305;48.398;11.762;2023-10-13T07:31:40;20.40;84.20
12481;DHT22;6305;48.398;11.762;2023-10-13T07:34:10;19.80;86.70
12481;DHT22;6305;48.398;11.762;2023-10-13T07:36:54;20.80;90.30
12481;DHT22;6305;48.398;11.762;2023-10-13T07:39:25;22.80;77.70
12481;DHT22;6305;48.398;11.762;2023-10-13T07:41:52;24.20;68.50
12481;DHT22;6305;48.398;11.762;2023-10-13T07:44:29;25.30;63.60
12481;DHT22;6305;48.398;11.762;2023-10-13T07:47:02;26.30;59.30
12481;DHT22;6305;48.398;11.762;2023-10-13T07:49:43;27.60;55.30
12481;DHT22;6305;48.398;11.762;2023-10-13T07:52:14;28.70;52.00
12481;DHT22;6305;48.398;11.762;2023-10-13T07:55:03;29.60;50.00
12481;DHT22;6305;48.398;11.762;2023-10-13T07:57:38;30.30;46.90
12481;DHT22;6305;48.398;11.762;2023-10-13T08:00:19;30.40;44.70
12481;DHT22;6305;48.398;11.762;2023-10-13T08:02:59;29.90;45.40
12481;DHT22;6305;48.398;11.762;2023-10-13T08:05:43;30.50;44.30
12481;DHT22;6305;48.398;11.762;2023-10-13T08:08:23;31.80;43.50
12481;DHT22;6305;48.398;11.762;2023-10-13T08:10:57;32.90;41.90
12481;DHT22;6305;48.398;11.762;2023-10-13T08:13:34;34.00;40.00
12481;DHT22;6305;48.398;11.762;2023-10-13T08:16:03;34.70;37.40
12481;DHT22;6305;48.398;11.762;2023-10-13T08:18:35;34.80;37.00
12481;DHT22;6305;48.398;11.762;2023-10-13T08:21:07;35.40;36.40
12481;DHT22;6305;48.398;11.762;2023-10-13T08:23:42;36.10;35.90
12481;DHT22;6305;48.398;11.762;2023-10-13T08:26:28;35.90;34.80
12481;DHT22;6305;48.398;11.762;2023-10-13T08:29:12;35.70;35.10
12481;DHT22;6305;48.398;11.762;2023-10-13T08:31:56;35.70;35.10
12481;DHT22;6305;48.398;11.762;2023-10-13T08:34:41;35.30;35.30
12481;DHT22;6305;48.398;11.762;2023-10-13T08:37:22;35.90;35.80
12481;DHT22;6305;48.398;11.762;2023-10-13T08:39:56;36.80;35.30
12481;DHT22;6305;48.398;11.762;2023-10-13T08:42:45;36.80;34.50
12481;DHT22;6305;48.398;11.762;2023-10-13T08:45:30;36.60;34.40
12481;DHT22;6305;48.398;11.762;2023-10-13T08:48:12;36.60;34.20
12481;DHT22;6305;48.398;11.762;2023-10-13T08:50:45;36.80;34.60
12481;DHT22;6305;48.398;11.762;2023-10-13T08:53:20;36.70;34.00
12481;DHT22;6305;48.398;11.762;2023-10-13T08:55:56;37.00;34.10
12481;DHT22;6305;48.398;11.762;2023-10-13T08:58:35;37.60;33.70
12481;DHT22;6305;48.398;11.762;2023-10-13T09:01:21;37.30;33.10
12481;DHT22;6305;48.398;11.762;2023-10-13T09:04:06;37.20;33.50
12481;DHT22;6305;48.398;11.762;2023-10-13T09:06:51;37.00;33.70
12481;DHT22;6305;48.398;11.762;2023-10-13T09:09:45;37.70;33.70
12481;DHT22;6305;48.398;11.762;2023-10-13T09:12:27;37.70;32.70
12481;DHT22;6305;48.398;11.762;2023-10-13T09:15:07;37.90;33.40
12481;DHT22;6305;48.398;11.762;2023-10-13T09:17:46;37.90;31.30
12481;DHT22;6305;48.398;11.762;2023-10-13T09:20:28;38.00;31.90
12481;DHT22;6305;48.398;11.762;2023-10-13T09:23:10;37.90;31.20
12481;DHT22;6305;48.398;11.762;2023-10-13T09:25:40;37.30;31.60
12481;DHT22;6305;48.398;11.762;2023-10-13T09:28:20;37.40;32.10
12481;DHT22;6305;48.398;11.762;2023-10-13T09:30:50;37.00;30.20
12481;DHT22;6305;48.398;11.762;2023-10-13T09:33:20;36.50;30.70
12481;DHT22;6305;48.398;11.762;2023-10-13T09:35:54;36.30;30.40
12481;DHT22;6305;48.398;11.762;2023-10-13T09:38:21;35.90;30.90
12481;DHT22;6305;48.398;11.762;2023-10-13T09:40:49;36.10;31.50
12481;DHT22;6305;48.398;11.762;2023-10-13T09:43:19;36.60;30.80
12481;DHT22;6305;48.398;11.762;2023-10-13T09:45:48;36.40;30.30
12481;DHT22;6305;48.398;11.762;2023-10-13T09:48:32;36.60;30.00
12481;DHT22;6305;48.398;11.762;2023-10-13T09:51:01;36.60;29.90
12481;DHT22;6305;48.398;11.762;2023-10-13T09:53:31;36.50;30.40
12481;DHT22;6305;48.398;11.762;2023-10-13T09:56:03;36.60;29.70
12481;DHT22;6305;48.398;11.762;2023-10-13T09:58:46;37.10;29.80
12481;DHT22;6305;48.398;11.762;2023-10-13T10:01:25;37.80;29.60
12481;DHT22;6305;48.398;11.762;2023-10-13T10:04:07;38.40;29.70
12481;DHT22;6305;48.398;11.762;2023-10-13T10:06:35;38.90;28.50
12481;DHT22;6305;48.398;11.762;2023-10-13T10:09:08;38.70;28.00
12481;DHT22;6305;48.398;11.762;2023-10-13T10:12:01;38.60;27.90
12481;DHT22;6305;48.398;11.762;2023-10-13T10:14:45;39.10;28.30
12481;DHT22;6305;48.398;11.762;2023-10-13T10:17:17;39.10;27.60
12481;DHT22;6305;48.398;11.762;2023-10-13T10:19:52;38.50;27.80
12481;DHT22;6305;48.398;11.762;2023-10-13T10:22:28;38.60;27.70
12481;DHT22;6305;48.398;11.762;2023-10-13T10:25:00;38.80;27.60
12481;DHT22;6305;48.398;11.762;2023-10-13T10:27:30;38.70;26.70
12481;DHT22;6305;48.398;11.762;2023-10-13T10:29:57;38.40;27.50
12481;DHT22;6305;48.398;11.762;2023-10-13T10:32:35;39.00;26.80
12481;DHT22;6305;48.398;11.762;2023-10-13T10:35:06;38.80;27.20
12481;DHT22;6305;48.398;11.762;2023-10-13T10:37:41;39.30;27.00
12481;DHT22;6305;48.398;11.762;2023-10-13T10:40:14;39.80;26.10
12481;DHT22;6305;48.398;11.762;2023-10-13T10:42:59;39.30;26.20
12481;DHT22;6305;48.398;11.762;2023-10-13T10:45:27;39.60;26.20
12481;DHT22;6305;48.398;11.762;2023-10-13T10:47:58;39.80;26.40
12481;DHT22;6305;48.398;11.762;2023-10-13T10:50:27;40.30;26.10
12481;DHT22;6305;48.398;11.762;2023-10-13T10:53:03;40.80;26.00
12481;DHT22;6305;48.398;11.762;2023-10-13T10:55:36;40.90;25.10
12481;DHT22;6305;48.398;11.762;2023-10-13T10:58:04;40.60;24.80
12481;DHT22;6305;48.398;11.762;2023-10-13T11:00:32;40.00;24.80
12481;DHT22;6305;48.398;11.762;2023-10-13T11:03:12;39.80;24.60
12481;DHT22;6305;48.398;11.762;2023-10-13T11:05:44;39.60;24.00
12481;DHT22;6305;48.398;11.762;2023-10-13T11:08:21;39.70;23.20
12481;DHT22;6305;48.398;11.762;2023-10-13T11:10:54;39.70;23.80
12481;DHT22;6305;48.398;11.762;2023-10-13T11:13:21;39.90;23.30
12481;DHT22;6305;48.398;11.762;2023-10-13T11:15:48;39.30;22.70
12481;DHT22;6305;48.398;11.762;2023-10-13T11:18:16;39.50;23.10
12481;DHT22;6305;48.398;11.762;2023-10-13T11:20:47;39.80;23.00
12481;DHT22;6305;48.398;11.762;2023-10-13T11:23:19;39.40;23.00
12481;DHT22;6305;48.398;11.762;2023-10-13T11:25:57;39.60;23.40
12481;DHT22;6305;48.398;11.762;2023-10-13T11:28:25;39.80;22.20
12481;DHT22;6305;48.398;11.762;2023-10-13T11:30:55;39.70;22.50
12481;DHT22;6305;48.398;11.762;2023-10-13T11:33:25;40.20;22.80
12481;DHT22;6305;48.398;11.762;2023-10-13T11:35:54;40.00;22.60
12481;DHT22;6305;48.398;11.762;2023-10-13T11:38:29;40.00;22.50
12481;DHT22;6305;48.398;11.762;2023-10-13T11:41:08;40.00;22.70
12481;DHT22;6305;48.398;11.762;2023-10-13T11:43:38;39.20;22.70
12481;DHT22;6305;48.398;11.762;2023-10-13T11:46:31;38.80;23.30
12481;DHT22;6305;48.398;11.762;2023-10-13T11:49:15;38.80;22.80
12481;DHT22;6305;48.398;11.762;2023-10-13T11:51:57;38.30;23.10
12481;DHT22;6305;48.398;11.762;2023-10-13T11:54:34;38.60;23.50
12481;DHT22;6305;48.398;11.762;2023-10-13T11:57:08;39.30;23.00
12481;DHT22;6305;48.398;11.762;2023-10-13T11:59:35;39.40;22.40
12481;DHT22;6305;48.398;11.762;2023-10-13T12:02:11;39.80;23.00
12481;DHT22;6305;48.398;11.762;2023-10-13T12:04:56;39.90;22.00
12481;DHT22;6305;48.398;11.762;2023-10-13T12:07:25;40.00;22.30
12481;DHT22;6305;48.398;11.762;2023-10-13T12:10:06;40.40;22.10
12481;DHT22;6305;48.398;11.762;2023-10-13T12:12:42;39.70;21.80
12481;DHT22;6305;48.398;11.762;2023-10-13T12:15:12;39.00;22.50
12481;DHT22;6305;48.398;11.762;2023-10-13T12:17:51;38.50;24.00
12481;DHT22;6305;48.398;11.762;2023-10-13T12:20:18;38.90;23.40
12481;DHT22;6305;48.398;11.762;2023-10-13T12:22:59;39.10;22.40
12481;DHT22;6305;48.398;11.762;2023-10-13T12:25:38;39.10;23.00
12481;DHT22;6305;48.398;11.762;2023-10-13T12:28:24;39.50;23.10
12481;DHT22;6305;48.398;11.762;2023-10-13T12:30:53;39.90;23.10
12481;DHT22;6305;48.398;11.762;2023-10-13T12:33:24;40.00;23.60
12481;DHT22;6305;48.398;11.762;2023-10-13T12:35:56;40.10;22.40
12481;DHT22;6305;48.398;11.762;2023-10-13T12:38:41;39.90;22.50
12481;DHT22;6305;48.398;11.762;2023-10-13T12:41:25;40.10;22.80
12481;DHT22;6305;48.398;11.762;2023-10-13T12:44:11;40.10;22.20
12481;DHT22;6305;48.398;11.762;2023-10-13T12:46:56;39.60;22.40
12481;DHT22;6305;48.398;11.762;2023-10-13T12:49:41;39.50;22.40
12481;DHT22;6305;48.398;11.762;2023-10-13T12:52:24;39.70;22.70
12481;DHT22;6305;48.398;11.762;2023-10-13T12:54:57;39.70;23.00
12481;DHT22;6305;48.398;11.762;2023-10-13T12:57:35;39.60;22.50
12481;DHT22;6305;48.398;11.762;2023-10-13T13:00:12;39.80;23.30
12481;DHT22;6305;48.398;11.762;2023-10-13T13:02:47;40.10;22.90
12481;DHT22;6305;48.398;11.762;2023-10-13T13:05:16;39.60;22.70
12481;DHT22;6305;48.398;11.762;2023-10-13T13:07:47;39.30;23.00
12481;DHT22;6305;48.398;11.762;2023-10-13T13:10:18;39.50;22.50
12481;DHT22;6305;48.398;11.762;2023-10-13T13:12:46;39.20;22.90
12481;DHT22;6305;48.398;11.762;2023-10-13T13:15:14;39.30;22.60
12481;DHT22;6305;48.398;11.762;2023-10-13T13:17:41;39.10;22.80
12481;DHT22;6305;48.398;11.762;2023-10-13T13:20:09;39.30;22.80
12481;DHT22;6305;48.398;11.762;2023-10-13T13:22:52;39.60;22.80
12481;DHT22;6305;48.398;11.762;2023-10-13T13:25:20;39.80;22.50
12481;DHT22;6305;48.398;11.762;2023-10-13T13:27:52;39.60;22.30
12481;DHT22;6305;48.398;11.762;2023-10-13T13:30:21;39.30;22.30
12481;DHT22;6305;48.398;11.762;2023-10-13T13:32:48;39.60;23.00
12481;DHT22;6305;48.398;11.762;2023-10-13T13:35:16;39.90;23.30
12481;DHT22;6305;48.398;11.762;2023-10-13T13:37:44;40.10;23.10
12481;DHT22;6305;48.398;11.762;2023-10-13T13:40:12;40.00;22.40
12481;DHT22;6305;48.398;11.762;2023-10-13T13:42:44;39.60;23.10
12481;DHT22;6305;48.398;11.762;2023-10-13T13:45:12;39.80;23.30
12481;DHT22;6305;48.398;11.762;2023-10-13T13:47:48;39.70;23.20
12481;DHT22;6305;48.398;11.762;2023-10-13T13:50:20;39.60;22.30
12481;DHT22;6305;48.398;11.762;2023-10-13T13:52:51;39.10;22.70
12481;DHT22;6305;48.398;11.762;2023-10-13T13:55:19;38.70;22.80
12481;DHT22;6305;48.398;11.762;2023-10-13T13:57:46;38.50;23.10
12481;DHT22;6305;48.398;11.762;2023-10-13T14:00:16;38.30;22.80
12481;DHT22;6305;48.398;11.762;2023-10-13T14:02:50;38.30;22.90
12481;DHT22;6305;48.398;11.762;2023-10-13T14:05:17;37.80;22.60
12481;DHT22;6305;48.398;11.762;2023-10-13T14:07:45;37.90;23.00
12481;DHT22;6305;48.398;11.762;2023-10-13T14:10:16;37.80;23.20
12481;DHT22;6305;48.398;11.762;2023-10-13T14:12:59;38.20;23.90
12481;DHT22;6305;48.398;11.762;2023-10-13T14:15:35;38.40;23.90
12481;DHT22;6305;48.398;11.762;2023-10-13T14:18:11;38.90;23.30
12481;DHT22;6305;48.398;11.762;2023-10-13T14:20:41;39.10;24.20
12481;DHT22;6305;48.398;11.762;2023-10-13T14:23:08;39.20;24.00
12481;DHT22;6305;48.398;11.762;2023-10-13T14:25:38;39.40;23.60
12481;DHT22;6305;48.398;11.762;2023-10-13T14:28:10;39.30;24.60
12481;DHT22;6305;48.398;11.762;2023-10-13T14:30:43;39.20;23.70
12481;DHT22;6305;48.398;11.762;2023-10-13T14:33:12;38.50;22.60
12481;DHT22;6305;48.398;11.762;2023-10-13T14:35:39;37.90;23.70
12481;DHT22;6305;48.398;11.762;2023-10-13T14:38:05;37.60;23.80
12481;DHT22;6305;48.398;11.762;2023-10-13T14:40:33;37.30;23.90
12481;DHT22;6305;48.398;11.762;2023-10-13T14:43:00;37.00;23.80
12481;DHT22;6305;48.398;11.762;2023-10-13T14:45:27;36.80;23.90
12481;DHT22;6305;48.398;11.762;2023-10-13T14:47:54;36.70;25.30
12481;DHT22;6305;48.398;11.762;2023-10-13T14:50:22;36.70;25.40
12481;DHT22;6305;48.398;11.762;2023-10-13T14:52:50;36.70;24.90
12481;DHT22;6305;48.398;11.762;2023-10-13T14:55:17;36.80;25.20
12481;DHT22;6305;48.398;11.762;2023-10-13T14:57:55;36.90;26.00
12481;DHT22;6305;48.398;11.762;2023-10-13T15:00:23;37.10;26.90
12481;DHT22;6305;48.398;11.762;2023-10-13T15:02:53;37.00;27.40
12481;DHT22;6305;48.398;11.762;2023-10-13T15:05:21;36.90;27.00
12481;DHT22;6305;48.398;11.762;2023-10-13T15:07:48;36.40;26.40
12481;DHT22;6305;48.398;11.762;2023-10-13T15:10:17;35.10;28.50
12481;DHT22;6305;48.398;11.762;2023-10-13T15:12:44;33.40;30.00
12481;DHT22;6305;48.398;11.762;2023-10-13T15:15:11;31.70;30.30
12481;DHT22;6305;48.398;11.762;2023-10-13T15:17:42;30.30;32.70
12481;DHT22;6305;48.398;11.762;2023-10-13T15:20:09;29.10;34.70
12481;DHT22;6305;48.398;11.762;2023-10-13T15:22:43;28.20;39.00
12481;DHT22;6305;48.398;11.762;2023-10-13T15:25:10;27.40;41.40
12481;DHT22;6305;48.398;11.762;2023-10-13T15:27:47;26.70;42.80
12481;DHT22;6305;48.398;11.762;2023-10-13T15:30:22;26.20;44.00
12481;DHT22;6305;48.398;11.762;2023-10-13T15:32:52;25.60;46.00
12481;DHT22;6305;48.398;11.762;2023-10-13T15:35:23;25.10;47.60
12481;DHT22;6305;48.398;11.762;2023-10-13T15:37:56;24.70;49.40
12481;DHT22;6305;48.398;11.762;2023-10-13T15:40:22;24.30;49.50
12481;DHT22;6305;48.398;11.762;2023-10-13T15:42:53;24.00;51.10
12481;DHT22;6305;48.398;11.762;2023-10-13T15:45:25;23.70;53.40
12481;DHT22;6305;48.398;11.762;2023-10-13T15:47:58;23.40;54.90
12481;DHT22;6305;48.398;11.762;2023-10-13T15:50:25;23.10;56.50
12481;DHT22;6305;48.398;11.762;2023-10-13T15:52:56;22.90;58.10
12481;DHT22;6305;48.398;11.762;2023-10-13T15:55:23;22.50;60.60
12481;DHT22;6305;48.398;11.762;2023-10-13T15:57:51;22.30;64.10
12481;DHT22;6305;48.398;11.762;2023-10-13T16:00:40;22.00;69.50
12481;DHT22;6305;48.398;11.762;2023-10-13T16:03:32;21.80;79.30
12481;DHT22;6305;48.398;11.762;2023-10-13T16:06:23;21.50;89.40
12481;DHT22;6305;48.398;11.762;2023-10-13T16:09:10;21.20;94.30
12481;DHT22;6305;48.398;11.762;2023-10-13T16:18:55;20.20;99.90
12481;DHT22;6305;48.398;11.762;2023-10-13T16:21:32;19.90;99.90
12481;DHT22;6305;48.398;11.762;2023-10-13T16:28:14;19.30;99.90
12481;DHT22;6305;48.398;11.762;2023-10-13T16:31:20;18.90;99.90
12481;DHT22;6305;48.398;11.762;2023-10-13T16:35:04;18.70;99.90